sensor_id;sensor_type;location;lat;lon;timestamp;temperature;humidity
78490;DHT22;67776;52.012;4.736;2024-01-06T00:01:56;5.93;96.75
78490;DHT22;67776;52.012;4.736;2024-01-06T00:04:22;5.83;96.56
78490;DHT22;67776;52.012;4.736;2024-01-06T00:06:47;5.84;96.95
78490;DHT22;67776;52.012;4.736;2024-01-06T00:09:12;5.81;96.27
78490;DHT22;67776;52.012;4.736;2024-01-06T00:11:38;5.81;96.56
78490;DHT22;67776;52.012;4.736;2024-01-06T00:14:03;5.74;96.51
78490;DHT22;67776;52.012;4.736;2024-01-06T00:16:28;5.71;96.10
78490;DHT22;67776;52.012;4.736;2024-01-06T00:18:54;5.71;96.06
78490;DHT22;67776;52.012;4.736;2024-01-06T00:21:19;5.62;95.95
78490;DHT22;67776;52.012;4.736;2024-01-06T00:23:44;5.64;96.31
78490;DHT22;67776;52.012;4.736;2024-01-06T00:26:10;5.67;96.07
78490;DHT22;67776;52.012;4.736;2024-01-06T00:28:35;5.73;97.11
78490;DHT22;67776;52.012;4.736;2024-01-06T00:31:00;5.69;96.41
78490;DHT22;67776;52.012;4.736;2024-01-06T00:33:26;5.70;96.24
78490;DHT22;67776;52.012;4.736;2024-01-06T00:35:51;5.64;96.24
78490;DHT22;67776;52.012;4.736;2024-01-06T00:38:16;5.67;96.44
78490;DHT22;67776;52.012;4.736;2024-01-06T00:40:42;5.66;96.30
78490;DHT22;67776;52.012;4.736;2024-01-06T00:43:07;5.63;96.50
78490;DHT22;67776;52.012;4.736;2024-01-06T00:45:32;5.70;96.37
78490;DHT22;67776;52.012;4.736;2024-01-06T00:47:58;5.69;96.30
78490;DHT22;67776;52.012;4.736;2024-01-06T00:50:23;5.70;95.69
78490;DHT22;67776;52.012;4.736;2024-01-06T00:52:49;5.63;95.85
78490;DHT22;67776;52.012;4.736;2024-01-06T00:55:18;5.60;96.88
78490;DHT22;67776;52.012;4.736;2024-01-06T00:57:43;5.56;95.94
78490;DHT22;67776;52.012;4.736;2024-01-06T01:00:09;5.53;95.22
78490;DHT22;67776;52.012;4.736;2024-01-06T01:02:34;5.56;96.26
78490;DHT22;67776;52.012;4.736;2024-01-06T01:04:59;5.56;96.18
78490;DHT22;67776;52.012;4.736;2024-01-06T01:07:25;5.62;96.81
78490;DHT22;67776;52.012;4.736;2024-01-06T01:09:52;5.59;95.95
78490;DHT22;67776;52.012;4.736;2024-01-06T01:12:17;5.56;96.03
78490;DHT22;67776;52.012;4.736;2024-01-06T01:14:42;5.62;96.51
78490;DHT22;67776;52.012;4.736;2024-01-06T01:17:08;5.60;95.28
78490;DHT22;67776;52.012;4.736;2024-01-06T01:19:33;5.63;95.02
78490;DHT22;67776;52.012;4.736;2024-01-06T01:21:59;5.49;94.62
78490;DHT22;67776;52.012;4.736;2024-01-06T01:24:25;5.59;94.97
78490;DHT22;67776;52.012;4.736;2024-01-06T01:26:51;5.71;94.38
78490;DHT22;67776;52.012;4.736;2024-01-06T01:29:16;5.73;94.71
78490;DHT22;67776;52.012;4.736;2024-01-06T01:31:42;5.70;94.95
78490;DHT22;67776;52.012;4.736;2024-01-06T01:34:07;5.70;95.46
78490;DHT22;67776;52.012;4.736;2024-01-06T01:36:33;5.69;95.34
78490;DHT22;67776;52.012;4.736;2024-01-06T01:38:58;5.71;95.23
78490;DHT22;67776;52.012;4.736;2024-01-06T01:41:24;5.62;95.48
78490;DHT22;67776;52.012;4.736;2024-01-06T01:43:49;5.54;95.23
78490;DHT22;67776;52.012;4.736;2024-01-06T01:46:26;5.57;95.59
78490;DHT22;67776;52.012;4.736;2024-01-06T01:48:53;5.57;95.79
78490;DHT22;67776;52.012;4.736;2024-01-06T01:51:20;5.64;95.43
78490;DHT22;67776;52.012;4.736;2024-01-06T01:53:47;5.64;95.40
78490;DHT22;67776;52.012;4.736;2024-01-06T01:56:12;5.60;95.34
78490;DHT22;67776;52.012;4.736;2024-01-06T01:58:37;5.63;95.57
78490;DHT22;67776;52.012;4.736;2024-01-06T02:01:03;5.62;95.14
78490;DHT22;67776;52.012;4.736;2024-01-06T02:03:30;5.57;93.94
78490;DHT22;67776;52.012;4.736;2024-01-06T02:05:56;5.60;94.32
78490;DHT22;67776;52.012;4.736;2024-01-06T02:08:21;5.64;94.03
78490;DHT22;67776;52.012;4.736;2024-01-06T02:10:47;5.67;94.30
78490;DHT22;67776;52.012;4.736;2024-01-06T02:13:13;5.63;94.12
78490;DHT22;67776;52.012;4.736;2024-01-06T02:15:38;5.60;93.81
78490;DHT22;67776;52.012;4.736;2024-01-06T02:18:04;5.46;92.38
78490;DHT22;67776;52.012;4.736;2024-01-06T02:20:31;5.49;93.34
78490;DHT22;67776;52.012;4.736;2024-01-06T02:22:56;5.40;93.77
78490;DHT22;67776;52.012;4.736;2024-01-06T02:25:24;5.35;93.62
78490;DHT22;67776;52.012;4.736;2024-01-06T02:27:49;5.25;94.45
78490;DHT22;67776;52.012;4.736;2024-01-06T02:30:14;5.22;95.44
78490;DHT22;67776;52.012;4.736;2024-01-06T02:32:39;5.28;95.43
78490;DHT22;67776;52.012;4.736;2024-01-06T02:35:05;5.29;95.59
78490;DHT22;67776;52.012;4.736;2024-01-06T02:37:30;5.29;95.16
78490;DHT22;67776;52.012;4.736;2024-01-06T02:39:56;5.25;94.47
78490;DHT22;67776;52.012;4.736;2024-01-06T02:42:21;5.35;94.10
78490;DHT22;67776;52.012;4.736;2024-01-06T02:44:47;5.31;94.09
78490;DHT22;67776;52.012;4.736;2024-01-06T02:47:12;5.18;93.80
78490;DHT22;67776;52.012;4.736;2024-01-06T02:49:37;5.14;94.95
78490;DHT22;67776;52.012;4.736;2024-01-06T02:52:03;5.17;94.96
78490;DHT22;67776;52.012;4.736;2024-01-06T02:54:28;5.24;94.95
78490;DHT22;67776;52.012;4.736;2024-01-06T02:56:53;5.11;94.65
78490;DHT22;67776;52.012;4.736;2024-01-06T02:59:19;5.09;94.94
78490;DHT22;67776;52.012;4.736;2024-01-06T03:01:44;5.14;94.85
78490;DHT22;67776;52.012;4.736;2024-01-06T03:04:09;5.14;95.08
78490;DHT22;67776;52.012;4.736;2024-01-06T03:06:35;5.18;95.30
78490;DHT22;67776;52.012;4.736;2024-01-06T03:09:00;5.17;95.36
78490;DHT22;67776;52.012;4.736;2024-01-06T03:11:25;5.15;95.95
78490;DHT22;67776;52.012;4.736;2024-01-06T03:13:51;5.21;95.36
78490;DHT22;67776;52.012;4.736;2024-01-06T03:16:16;5.19;95.24
78490;DHT22;67776;52.012;4.736;2024-01-06T03:18:41;5.09;95.48
78490;DHT22;67776;52.012;4.736;2024-01-06T03:21:20;5.22;95.20
78490;DHT22;67776;52.012;4.736;2024-01-06T03:23:46;5.17;95.14
78490;DHT22;67776;52.012;4.736;2024-01-06T03:26:11;5.14;95.95
78490;DHT22;67776;52.012;4.736;2024-01-06T03:28:37;5.12;96.55
78490;DHT22;67776;52.012;4.736;2024-01-06T03:31:02;5.08;95.62
78490;DHT22;67776;52.012;4.736;2024-01-06T03:33:27;5.05;95.55
78490;DHT22;67776;52.012;4.736;2024-01-06T03:35:53;5.09;95.38
78490;DHT22;67776;52.012;4.736;2024-01-06T03:38:18;5.04;95.32
78490;DHT22;67776;52.012;4.736;2024-01-06T03:40:43;5.02;96.07
78490;DHT22;67776;52.012;4.736;2024-01-06T03:43:09;5.08;95.79
78490;DHT22;67776;52.012;4.736;2024-01-06T03:45:34;5.08;96.18
78490;DHT22;67776;52.012;4.736;2024-01-06T03:47:59;5.14;95.50
78490;DHT22;67776;52.012;4.736;2024-01-06T03:50:24;5.15;95.62
78490;DHT22;67776;52.012;4.736;2024-01-06T03:52:50;5.02;96.12
78490;DHT22;67776;52.012;4.736;2024-01-06T03:55:15;5.01;96.28
78490;DHT22;67776;52.012;4.736;2024-01-06T03:57:41;4.95;96.23
78490;DHT22;67776;52.012;4.736;2024-01-06T04:00:07;4.98;96.18
78490;DHT22;67776;52.012;4.736;2024-01-06T04:02:32;4.99;96.34
78490;DHT22;67776;52.012;4.736;2024-01-06T04:04:58;5.02;96.63
78490;DHT22;67776;52.012;4.736;2024-01-06T04:07:23;5.05;96.27
78490;DHT22;67776;52.012;4.736;2024-01-06T04:09:48;4.98;96.77
78490;DHT22;67776;52.012;4.736;2024-01-06T04:12:14;5.05;96.62
78490;DHT22;67776;52.012;4.736;2024-01-06T04:14:39;5.07;97.16
78490;DHT22;67776;52.012;4.736;2024-01-06T04:17:05;5.02;97.80
78490;DHT22;67776;52.012;4.736;2024-01-06T04:19:30;5.04;97.14
78490;DHT22;67776;52.012;4.736;2024-01-06T04:21:57;4.99;95.80
78490;DHT22;67776;52.012;4.736;2024-01-06T04:24:22;4.98;94.97
78490;DHT22;67776;52.012;4.736;2024-01-06T04:26:49;5.01;94.33
78490;DHT22;67776;52.012;4.736;2024-01-06T04:29:15;5.02;93.91
78490;DHT22;67776;52.012;4.736;2024-01-06T04:31:41;5.05;93.93
78490;DHT22;67776;52.012;4.736;2024-01-06T04:34:06;4.99;94.27
78490;DHT22;67776;52.012;4.736;2024-01-06T04:36:31;4.98;93.90
78490;DHT22;67776;52.012;4.736;2024-01-06T04:38:57;5.02;94.19
78490;DHT22;67776;52.012;4.736;2024-01-06T04:41:22;4.94;94.09
78490;DHT22;67776;52.012;4.736;2024-01-06T04:43:47;4.98;94.08
78490;DHT22;67776;52.012;4.736;2024-01-06T04:46:13;5.04;94.26
78490;DHT22;67776;52.012;4.736;2024-01-06T04:48:40;4.98;95.04
78490;DHT22;67776;52.012;4.736;2024-01-06T04:51:07;4.99;94.60
78490;DHT22;67776;52.012;4.736;2024-01-06T04:53:36;5.04;94.47
78490;DHT22;67776;52.012;4.736;2024-01-06T04:56:02;5.01;94.31
78490;DHT22;67776;52.012;4.736;2024-01-06T04:58:28;4.90;95.30
78490;DHT22;67776;52.012;4.736;2024-01-06T05:00:53;4.85;96.13
78490;DHT22;67776;52.012;4.736;2024-01-06T05:03:19;4.91;96.30
78490;DHT22;67776;52.012;4.736;2024-01-06T05:05:44;4.83;96.54
78490;DHT22;67776;52.012;4.736;2024-01-06T05:08:09;4.99;95.84
78490;DHT22;67776;52.012;4.736;2024-01-06T05:10:35;4.99;95.90
78490;DHT22;67776;52.012;4.736;2024-01-06T05:13:00;5.04;95.30
78490;DHT22;67776;52.012;4.736;2024-01-06T05:15:25;5.05;94.86
78490;DHT22;67776;52.012;4.736;2024-01-06T05:17:54;4.99;95.41
78490;DHT22;67776;52.012;4.736;2024-01-06T05:20:20;4.92;95.22
78490;DHT22;67776;52.012;4.736;2024-01-06T05:22:45;4.91;95.08
78490;DHT22;67776;52.012;4.736;2024-01-06T05:25:10;4.80;95.76
78490;DHT22;67776;52.012;4.736;2024-01-06T05:27:36;4.80;95.92
78490;DHT22;67776;52.012;4.736;2024-01-06T05:30:04;4.81;95.89
78490;DHT22;67776;52.012;4.736;2024-01-06T05:32:31;4.79;96.12
78490;DHT22;67776;52.012;4.736;2024-01-06T05:34:56;4.76;96.54
78490;DHT22;67776;52.012;4.736;2024-01-06T05:37:22;4.77;95.47
78490;DHT22;67776;52.012;4.736;2024-01-06T05:39:47;4.74;95.62
78490;DHT22;67776;52.012;4.736;2024-01-06T05:42:12;4.76;95.61
78490;DHT22;67776;52.012;4.736;2024-01-06T05:44:38;4.80;96.08
78490;DHT22;67776;52.012;4.736;2024-01-06T05:47:04;4.83;95.65
78490;DHT22;67776;52.012;4.736;2024-01-06T05:49:29;4.83;95.77
78490;DHT22;67776;52.012;4.736;2024-01-06T05:51:54;4.85;95.65
78490;DHT22;67776;52.012;4.736;2024-01-06T05:54:19;4.83;96.13
78490;DHT22;67776;52.012;4.736;2024-01-06T05:56:45;4.77;96.18
78490;DHT22;67776;52.012;4.736;2024-01-06T05:59:10;4.81;95.66
78490;DHT22;67776;52.012;4.736;2024-01-06T06:01:35;4.80;95.47
78490;DHT22;67776;52.012;4.736;2024-01-06T06:04:01;4.76;94.91
78490;DHT22;67776;52.012;4.736;2024-01-06T06:06:26;4.70;95.26
78490;DHT22;67776;52.012;4.736;2024-01-06T06:08:52;4.74;95.74
78490;DHT22;67776;52.012;4.736;2024-01-06T06:11:17;4.79;95.19
78490;DHT22;67776;52.012;4.736;2024-01-06T06:13:43;4.80;94.64
78490;DHT22;67776;52.012;4.736;2024-01-06T06:16:09;4.71;95.39
78490;DHT22;67776;52.012;4.736;2024-01-06T06:18:35;4.74;95.28
78490;DHT22;67776;52.012;4.736;2024-01-06T06:21:04;4.81;95.53
78490;DHT22;67776;52.012;4.736;2024-01-06T06:23:32;4.77;95.49
78490;DHT22;67776;52.012;4.736;2024-01-06T06:25:58;4.81;95.47
78490;DHT22;67776;52.012;4.736;2024-01-06T06:28:24;4.73;95.95
78490;DHT22;67776;52.012;4.736;2024-01-06T06:30:50;4.80;96.14
78490;DHT22;67776;52.012;4.736;2024-01-06T06:33:15;4.85;95.63
78490;DHT22;67776;52.012;4.736;2024-01-06T06:35:41;4.73;96.22
78490;DHT22;67776;52.012;4.736;2024-01-06T06:38:06;4.71;95.94
78490;DHT22;67776;52.012;4.736;2024-01-06T06:40:31;4.71;96.61
78490;DHT22;67776;52.012;4.736;2024-01-06T06:42:57;4.63;97.00
78490;DHT22;67776;52.012;4.736;2024-01-06T06:45:22;4.63;97.06
78490;DHT22;67776;52.012;4.736;2024-01-06T06:47:51;4.56;97.48
78490;DHT22;67776;52.012;4.736;2024-01-06T06:50:17;4.63;97.35
78490;DHT22;67776;52.012;4.736;2024-01-06T06:52:42;4.74;97.25
78490;DHT22;67776;52.012;4.736;2024-01-06T06:55:08;4.66;97.29
78490;DHT22;67776;52.012;4.736;2024-01-06T06:57:33;4.54;98.14
78490;DHT22;67776;52.012;4.736;2024-01-06T06:59:59;4.49;98.23
78490;DHT22;67776;52.012;4.736;2024-01-06T07:02:25;4.45;97.99
78490;DHT22;67776;52.012;4.736;2024-01-06T07:04:51;4.50;97.45
78490;DHT22;67776;52.012;4.736;2024-01-06T07:07:16;4.46;97.69
78490;DHT22;67776;52.012;4.736;2024-01-06T07:09:41;4.50;97.73
78490;DHT22;67776;52.012;4.736;2024-01-06T07:12:07;4.42;97.94
78490;DHT22;67776;52.012;4.736;2024-01-06T07:14:33;4.50;97.95
78490;DHT22;67776;52.012;4.736;2024-01-06T07:16:58;4.43;97.76
78490;DHT22;67776;52.012;4.736;2024-01-06T07:19:24;4.49;97.77
78490;DHT22;67776;52.012;4.736;2024-01-06T07:21:49;4.46;98.18
78490;DHT22;67776;52.012;4.736;2024-01-06T07:24:14;4.48;97.86
78490;DHT22;67776;52.012;4.736;2024-01-06T07:26:40;4.45;98.13
78490;DHT22;67776;52.012;4.736;2024-01-06T07:29:05;4.38;98.28
78490;DHT22;67776;52.012;4.736;2024-01-06T07:31:32;4.49;98.17
78490;DHT22;67776;52.012;4.736;2024-01-06T07:33:57;4.46;97.98
78490;DHT22;67776;52.012;4.736;2024-01-06T07:36:22;4.43;97.83
78490;DHT22;67776;52.012;4.736;2024-01-06T07:38:48;4.53;97.71
78490;DHT22;67776;52.012;4.736;2024-01-06T07:41:13;4.54;97.31
78490;DHT22;67776;52.012;4.736;2024-01-06T07:43:39;4.52;97.93
78490;DHT22;67776;52.012;4.736;2024-01-06T07:46:04;4.48;97.54
78490;DHT22;67776;52.012;4.736;2024-01-06T07:48:32;4.57;97.43
78490;DHT22;67776;52.012;4.736;2024-01-06T07:50:57;4.60;97.01
78490;DHT22;67776;52.012;4.736;2024-01-06T07:53:22;4.54;96.75
78490;DHT22;67776;52.012;4.736;2024-01-06T07:55:48;4.49;97.30
78490;DHT22;67776;52.012;4.736;2024-01-06T07:58:13;4.57;97.37
78490;DHT22;67776;52.012;4.736;2024-01-06T08:00:38;4.53;97.34
78490;DHT22;67776;52.012;4.736;2024-01-06T08:03:04;4.45;97.14
78490;DHT22;67776;52.012;4.736;2024-01-06T08:05:33;4.53;97.12
78490;DHT22;67776;52.012;4.736;2024-01-06T08:07:58;4.59;97.01
78490;DHT22;67776;52.012;4.736;2024-01-06T08:10:24;4.53;96.34
78490;DHT22;67776;52.012;4.736;2024-01-06T08:12:49;4.62;96.51
78490;DHT22;67776;52.012;4.736;2024-01-06T08:15:14;4.70;95.79
78490;DHT22;67776;52.012;4.736;2024-01-06T08:17:40;4.69;95.12
78490;DHT22;67776;52.012;4.736;2024-01-06T08:20:07;4.60;95.86
78490;DHT22;67776;52.012;4.736;2024-01-06T08:22:33;4.60;95.67
78490;DHT22;67776;52.012;4.736;2024-01-06T08:24:59;4.50;95.98
78490;DHT22;67776;52.012;4.736;2024-01-06T08:27:24;4.54;96.46
78490;DHT22;67776;52.012;4.736;2024-01-06T08:29:50;4.57;95.35
78490;DHT22;67776;52.012;4.736;2024-01-06T08:32:15;4.59;95.17
78490;DHT22;67776;52.012;4.736;2024-01-06T08:34:41;4.54;95.75
78490;DHT22;67776;52.012;4.736;2024-01-06T08:37:07;4.57;95.40
78490;DHT22;67776;52.012;4.736;2024-01-06T08:39:32;4.53;95.23
78490;DHT22;67776;52.012;4.736;2024-01-06T08:41:57;4.54;94.52
78490;DHT22;67776;52.012;4.736;2024-01-06T08:44:23;4.60;94.57
78490;DHT22;67776;52.012;4.736;2024-01-06T08:46:49;4.62;94.61
78490;DHT22;67776;52.012;4.736;2024-01-06T08:49:15;4.66;95.11
78490;DHT22;67776;52.012;4.736;2024-01-06T08:51:40;4.64;94.86
78490;DHT22;67776;52.012;4.736;2024-01-06T08:54:06;4.60;95.24
78490;DHT22;67776;52.012;4.736;2024-01-06T08:56:33;4.52;95.32
78490;DHT22;67776;52.012;4.736;2024-01-06T08:58:58;4.50;95.39
78490;DHT22;67776;52.012;4.736;2024-01-06T09:01:24;4.50;95.19
78490;DHT22;67776;52.012;4.736;2024-01-06T09:03:49;4.64;94.81
78490;DHT22;67776;52.012;4.736;2024-01-06T09:06:15;4.60;95.00
78490;DHT22;67776;52.012;4.736;2024-01-06T09:08:40;4.63;95.05
78490;DHT22;67776;52.012;4.736;2024-01-06T09:11:06;4.62;94.69
78490;DHT22;67776;52.012;4.736;2024-01-06T09:13:31;4.60;93.49
78490;DHT22;67776;52.012;4.736;2024-01-06T09:15:58;4.62;94.06
78490;DHT22;67776;52.012;4.736;2024-01-06T09:18:23;4.70;94.00
78490;DHT22;67776;52.012;4.736;2024-01-06T09:20:49;4.67;94.49
78490;DHT22;67776;52.012;4.736;2024-01-06T09:23:15;4.76;93.90
78490;DHT22;67776;52.012;4.736;2024-01-06T09:25:40;4.84;94.22
78490;DHT22;67776;52.012;4.736;2024-01-06T09:28:06;4.79;94.48
78490;DHT22;67776;52.012;4.736;2024-01-06T09:30:31;4.84;93.30
78490;DHT22;67776;52.012;4.736;2024-01-06T09:32:57;4.81;94.70
78490;DHT22;67776;52.012;4.736;2024-01-06T09:35:23;4.83;93.95
78490;DHT22;67776;52.012;4.736;2024-01-06T09:37:48;4.76;93.34
78490;DHT22;67776;52.012;4.736;2024-01-06T09:40:23;4.79;93.74
78490;DHT22;67776;52.012;4.736;2024-01-06T09:42:52;4.87;93.08
78490;DHT22;67776;52.012;4.736;2024-01-06T09:45:20;4.92;93.00
78490;DHT22;67776;52.012;4.736;2024-01-06T09:47:51;4.79;94.19
78490;DHT22;67776;52.012;4.736;2024-01-06T09:50:20;4.70;94.41
78490;DHT22;67776;52.012;4.736;2024-01-06T09:52:47;4.76;94.07
78490;DHT22;67776;52.012;4.736;2024-01-06T09:55:29;4.80;93.48
78490;DHT22;67776;52.012;4.736;2024-01-06T09:57:54;4.73;93.11
78490;DHT22;67776;52.012;4.736;2024-01-06T10:00:20;4.92;92.81
78490;DHT22;67776;52.012;4.736;2024-01-06T10:02:49;4.92;93.58
78490;DHT22;67776;52.012;4.736;2024-01-06T10:05:16;4.80;92.71
78490;DHT22;67776;52.012;4.736;2024-01-06T10:07:43;4.81;92.72
78490;DHT22;67776;52.012;4.736;2024-01-06T10:10:09;4.90;91.15
78490;DHT22;67776;52.012;4.736;2024-01-06T10:12:37;4.98;91.32
78490;DHT22;67776;52.012;4.736;2024-01-06T10:15:02;4.97;92.26
78490;DHT22;67776;52.012;4.736;2024-01-06T10:17:28;4.94;92.55
78490;DHT22;67776;52.012;4.736;2024-01-06T10:19:53;4.99;91.80
78490;DHT22;67776;52.012;4.736;2024-01-06T10:22:19;4.90;90.75
78490;DHT22;67776;52.012;4.736;2024-01-06T10:24:45;4.94;90.46
78490;DHT22;67776;52.012;4.736;2024-01-06T10:27:11;4.92;91.07
78490;DHT22;67776;52.012;4.736;2024-01-06T10:29:36;4.77;91.86
78490;DHT22;67776;52.012;4.736;2024-01-06T10:32:02;4.81;92.51
78490;DHT22;67776;52.012;4.736;2024-01-06T10:34:28;4.73;91.73
78490;DHT22;67776;52.012;4.736;2024-01-06T10:36:54;4.84;92.19
78490;DHT22;67776;52.012;4.736;2024-01-06T10:39:20;4.84;91.51
78490;DHT22;67776;52.012;4.736;2024-01-06T10:41:50;4.80;92.08
78490;DHT22;67776;52.012;4.736;2024-01-06T10:44:17;4.73;91.83
78490;DHT22;67776;52.012;4.736;2024-01-06T10:46:44;4.74;92.19
78490;DHT22;67776;52.012;4.736;2024-01-06T10:49:11;4.81;92.26
78490;DHT22;67776;52.012;4.736;2024-01-06T10:51:38;4.88;92.42
78490;DHT22;67776;52.012;4.736;2024-01-06T10:54:04;4.83;92.22
78490;DHT22;67776;52.012;4.736;2024-01-06T10:56:30;4.85;91.88
78490;DHT22;67776;52.012;4.736;2024-01-06T10:58:57;4.80;92.99
78490;DHT22;67776;52.012;4.736;2024-01-06T11:01:23;4.83;92.31
78490;DHT22;67776;52.012;4.736;2024-01-06T11:03:53;4.87;91.50
78490;DHT22;67776;52.012;4.736;2024-01-06T11:06:19;4.80;91.90
78490;DHT22;67776;52.012;4.736;2024-01-06T11:08:53;4.81;92.59
78490;DHT22;67776;52.012;4.736;2024-01-06T11:11:19;4.92;91.75
78490;DHT22;67776;52.012;4.736;2024-01-06T11:13:46;4.92;91.83
78490;DHT22;67776;52.012;4.736;2024-01-06T11:16:36;4.74;92.63
78490;DHT22;67776;52.012;4.736;2024-01-06T11:19:02;4.83;92.71
78490;DHT22;67776;52.012;4.736;2024-01-06T11:21:33;4.85;93.50
78490;DHT22;67776;52.012;4.736;2024-01-06T11:24:18;4.87;92.11
78490;DHT22;67776;52.012;4.736;2024-01-06T11:26:47;4.88;92.35
78490;DHT22;67776;52.012;4.736;2024-01-06T11:29:14;4.92;91.85
78490;DHT22;67776;52.012;4.736;2024-01-06T11:31:40;5.02;91.61
78490;DHT22;67776;52.012;4.736;2024-01-06T11:34:18;4.92;91.83
78490;DHT22;67776;52.012;4.736;2024-01-06T11:36:48;4.98;91.83
78490;DHT22;67776;52.012;4.736;2024-01-06T11:39:40;4.92;92.85
78490;DHT22;67776;52.012;4.736;2024-01-06T11:42:09;4.84;92.84
78490;DHT22;67776;52.012;4.736;2024-01-06T11:44:39;4.74;93.04
78490;DHT22;67776;52.012;4.736;2024-01-06T11:47:05;4.87;93.26
78490;DHT22;67776;52.012;4.736;2024-01-06T11:49:31;4.98;91.68
78490;DHT22;67776;52.012;4.736;2024-01-06T11:51:57;4.97;92.10
78490;DHT22;67776;52.012;4.736;2024-01-06T11:54:23;4.83;93.34
78490;DHT22;67776;52.012;4.736;2024-01-06T11:56:48;4.81;91.88
78490;DHT22;67776;52.012;4.736;2024-01-06T11:59:14;4.88;92.28
78490;DHT22;67776;52.012;4.736;2024-01-06T12:01:40;4.92;92.04
78490;DHT22;67776;52.012;4.736;2024-01-06T12:04:06;4.84;93.10
78490;DHT22;67776;52.012;4.736;2024-01-06T12:06:32;4.85;92.32
78490;DHT22;67776;52.012;4.736;2024-01-06T12:09:10;4.94;92.44
78490;DHT22;67776;52.012;4.736;2024-01-06T12:11:35;4.92;92.89
78490;DHT22;67776;52.012;4.736;2024-01-06T12:14:02;4.80;92.15
78490;DHT22;67776;52.012;4.736;2024-01-06T12:16:28;4.77;92.77
78490;DHT22;67776;52.012;4.736;2024-01-06T12:18:54;4.80;92.43
78490;DHT22;67776;52.012;4.736;2024-01-06T12:21:26;4.81;93.15
78490;DHT22;67776;52.012;4.736;2024-01-06T12:23:51;4.84;93.16
78490;DHT22;67776;52.012;4.736;2024-01-06T12:26:17;4.79;92.95
78490;DHT22;67776;52.012;4.736;2024-01-06T12:28:47;4.71;93.19
78490;DHT22;67776;52.012;4.736;2024-01-06T12:31:13;4.81;93.00
78490;DHT22;67776;52.012;4.736;2024-01-06T12:33:39;4.85;92.16
78490;DHT22;67776;52.012;4.736;2024-01-06T12:36:07;4.84;91.99
78490;DHT22;67776;52.012;4.736;2024-01-06T12:38:34;4.81;92.46
78490;DHT22;67776;52.012;4.736;2024-01-06T12:41:00;4.87;92.72
78490;DHT22;67776;52.012;4.736;2024-01-06T12:43:25;4.88;92.08
78490;DHT22;67776;52.012;4.736;2024-01-06T12:45:50;4.83;92.51
78490;DHT22;67776;52.012;4.736;2024-01-06T12:48:18;4.92;92.29
78490;DHT22;67776;52.012;4.736;2024-01-06T12:50:44;4.91;93.45
78490;DHT22;67776;52.012;4.736;2024-01-06T12:53:09;4.97;92.49
78490;DHT22;67776;52.012;4.736;2024-01-06T12:55:37;4.97;92.36
78490;DHT22;67776;52.012;4.736;2024-01-06T12:58:02;4.97;92.27
78490;DHT22;67776;52.012;4.736;2024-01-06T13:00:29;4.94;92.39
78490;DHT22;67776;52.012;4.736;2024-01-06T13:02:54;4.97;92.13
78490;DHT22;67776;52.012;4.736;2024-01-06T13:05:20;4.95;91.39
78490;DHT22;67776;52.012;4.736;2024-01-06T13:07:46;5.05;91.72
78490;DHT22;67776;52.012;4.736;2024-01-06T13:10:11;5.07;91.96
78490;DHT22;67776;52.012;4.736;2024-01-06T13:12:36;5.02;91.28
78490;DHT22;67776;52.012;4.736;2024-01-06T13:15:02;5.04;91.06
78490;DHT22;67776;52.012;4.736;2024-01-06T13:17:27;4.98;91.58
78490;DHT22;67776;52.012;4.736;2024-01-06T13:19:52;5.05;91.92
78490;DHT22;67776;52.012;4.736;2024-01-06T13:22:18;4.98;90.87
78490;DHT22;67776;52.012;4.736;2024-01-06T13:24:46;4.98;90.41
78490;DHT22;67776;52.012;4.736;2024-01-06T13:27:12;5.07;90.42
78490;DHT22;67776;52.012;4.736;2024-01-06T13:29:38;5.05;90.69
78490;DHT22;67776;52.012;4.736;2024-01-06T13:32:04;4.90;91.01
78490;DHT22;67776;52.012;4.736;2024-01-06T13:34:31;4.84;91.95
78490;DHT22;67776;52.012;4.736;2024-01-06T13:36:56;4.95;92.21
78490;DHT22;67776;52.012;4.736;2024-01-06T13:39:22;4.94;92.40
78490;DHT22;67776;52.012;4.736;2024-01-06T13:41:48;4.90;92.85
78490;DHT22;67776;52.012;4.736;2024-01-06T13:44:15;4.85;92.63
78490;DHT22;67776;52.012;4.736;2024-01-06T13:46:40;4.90;92.99
78490;DHT22;67776;52.012;4.736;2024-01-06T13:49:10;4.74;93.91
78490;DHT22;67776;52.012;4.736;2024-01-06T13:51:35;4.76;94.09
78490;DHT22;67776;52.012;4.736;2024-01-06T13:54:01;4.79;93.75
78490;DHT22;67776;52.012;4.736;2024-01-06T13:56:26;4.69;94.54
78490;DHT22;67776;52.012;4.736;2024-01-06T13:58:52;4.74;93.95
78490;DHT22;67776;52.012;4.736;2024-01-06T14:01:17;4.83;94.13
78490;DHT22;67776;52.012;4.736;2024-01-06T14:03:42;4.87;93.31
78490;DHT22;67776;52.012;4.736;2024-01-06T14:06:07;4.90;92.53
78490;DHT22;67776;52.012;4.736;2024-01-06T14:08:34;4.74;91.75
78490;DHT22;67776;52.012;4.736;2024-01-06T14:10:59;4.83;92.02
78490;DHT22;67776;52.012;4.736;2024-01-06T14:13:24;4.74;92.80
78490;DHT22;67776;52.012;4.736;2024-01-06T14:15:51;4.79;92.38
78490;DHT22;67776;52.012;4.736;2024-01-06T14:18:16;4.67;92.38
78490;DHT22;67776;52.012;4.736;2024-01-06T14:20:42;4.70;92.97
78490;DHT22;67776;52.012;4.736;2024-01-06T14:23:07;4.76;93.00
78490;DHT22;67776;52.012;4.736;2024-01-06T14:25:35;4.83;91.77
78490;DHT22;67776;52.012;4.736;2024-01-06T14:28:01;4.81;91.36
78490;DHT22;67776;52.012;4.736;2024-01-06T14:30:27;4.70;92.40
78490;DHT22;67776;52.012;4.736;2024-01-06T14:32:52;4.76;92.58
78490;DHT22;67776;52.012;4.736;2024-01-06T14:35:17;4.83;91.58
78490;DHT22;67776;52.012;4.736;2024-01-06T14:37:43;4.73;91.99
78490;DHT22;67776;52.012;4.736;2024-01-06T14:40:11;4.73;92.30
78490;DHT22;67776;52.012;4.736;2024-01-06T14:42:37;4.79;92.15
78490;DHT22;67776;52.012;4.736;2024-01-06T14:45:02;4.76;91.56
78490;DHT22;67776;52.012;4.736;2024-01-06T14:47:28;4.74;91.63
78490;DHT22;67776;52.012;4.736;2024-01-06T14:49:53;4.63;91.62
78490;DHT22;67776;52.012;4.736;2024-01-06T14:52:20;4.57;91.53
78490;DHT22;67776;52.012;4.736;2024-01-06T14:54:45;4.67;91.95
78490;DHT22;67776;52.012;4.736;2024-01-06T14:57:10;4.67;91.44
78490;DHT22;67776;52.012;4.736;2024-01-06T14:59:35;4.60;91.79
78490;DHT22;67776;52.012;4.736;2024-01-06T15:02:02;4.57;91.12
78490;DHT22;67776;52.012;4.736;2024-01-06T15:04:28;4.66;92.32
78490;DHT22;67776;52.012;4.736;2024-01-06T15:06:54;4.70;93.13
78490;DHT22;67776;52.012;4.736;2024-01-06T15:09:19;4.43;93.37
78490;DHT22;67776;52.012;4.736;2024-01-06T15:11:45;4.36;93.84
78490;DHT22;67776;52.012;4.736;2024-01-06T15:14:11;4.53;93.93
78490;DHT22;67776;52.012;4.736;2024-01-06T15:16:36;4.42;94.32
78490;DHT22;67776;52.012;4.736;2024-01-06T15:19:02;4.45;93.71
78490;DHT22;67776;52.012;4.736;2024-01-06T15:21:27;4.52;93.85
78490;DHT22;67776;52.012;4.736;2024-01-06T15:23:55;4.54;94.22
78490;DHT22;67776;52.012;4.736;2024-01-06T15:26:24;4.33;95.09
78490;DHT22;67776;52.012;4.736;2024-01-06T15:28:49;4.45;94.17
78490;DHT22;67776;52.012;4.736;2024-01-06T15:31:16;4.36;93.38
78490;DHT22;67776;52.012;4.736;2024-01-06T15:33:41;4.39;93.63
78490;DHT22;67776;52.012;4.736;2024-01-06T15:36:10;4.36;93.75
78490;DHT22;67776;52.012;4.736;2024-01-06T15:38:36;4.42;93.90